Home > Products > Valid Products > MTR

000
SAUS43 KDLH 020857
MTRGNA
METAR KGNA 020856Z AUTO VRB03KT 02/01 A2943 RMK AO1 SLP975 T00220006
50003





000
SAUS43 KDLH 020857
MTRGNA
METAR KGNA 020856Z AUTO VRB03KT 02/01 A2943 RMK AO1 SLP975 T00220006
50003





000
SAUS43 KDLH 020657
MTRGNA
METAR KGNA 020656Z AUTO 25003KT 02/00 A2943 RMK AO1 SLP974 T00170000





000
SAUS43 KDLH 020557
MTRGNA
METAR KGNA 020556Z AUTO 00000KT 02/00 A2942 RMK AO1 SLP973 T00170000
10067 20017 400671011 55009





000
SAUS43 KDLH 020457
MTRGNA
METAR KGNA 020456Z AUTO 06003KT 04/01 A2942 RMK AO1 SLP970 T00390006





000
SAUS43 KDLH 020257
MTRGNA
METAR KGNA 020256Z AUTO 06008KT 07/02 A2945 RMK AO1 SLP981 T00670017
56025





000
SAUS43 KDLH 020157
MTRGNA
METAR KGNA 020156Z AUTO 06009KT 06/01 A2948 RMK AO1 SLP990 T00560006





000
SAUS43 KDLH 020057
MTRGNA
METAR KGNA 020056Z AUTO 06009KT 06/00 A2949 RMK AO1 SLP993 T00560000





000
SAUS43 KDLH 012357
MTRGNA
METAR KGNA 012356Z AUTO 07010G17KT 04/M01 A2953 RMK AO1 SLP007
T00441006 10056 20000 58036





000
SAUS43 KDLH 012257
MTRGNA
METAR KGNA 012256Z AUTO 06010KT 04/M01 A2957 RMK AO1 SLP022
T00441006





000
SAUS43 KDLH 012157
MTRGNA
METAR KGNA 012156Z AUTO 07012G19KT 03/M01 A2960 RMK AO1 SLP033
T00331006





000
SAUS43 KDLH 012057
MTRGNA
METAR KGNA 012056Z AUTO 06013G21KT 03/M01 A2964 RMK AO1 SLP045
T00331006 56049





000
SAUS43 KDLH 011957
MTRGNA
METAR KGNA 011956Z AUTO 06017G24KT 03/M01 A2968 RMK AO1 PK WND
07027/1935 SLP058 T00281011





000
SAUS43 KDLH 011957
MTRGNA
METAR KGNA 011956Z AUTO 06017G24KT 03/M01 A2968 RMK AO1 PK WND
07027/1935 SLP058 T00281011





000
SAUS43 KDLH 011757
MTRGNA
METAR KGNA 011756Z AUTO 06017G24KT 00/M02 A2978 RMK AO1 PK WND
06026/1726 SLP096 60001 T00001017 10006 21006 58045





000
SAUS43 KDLH 011657
MTRGNA
METAR KGNA 011656Z AUTO 06015G22KT 00/M01 A2985 RMK AO1 SLP119
T00001011





000
SAUS43 KDLH 011657
MTRGNA
METAR KGNA 011656Z AUTO 06015G22KT 00/M01 A2985 RMK AO1 SLP119
T00001011





000
SAUS43 KDLH 011558
MTRGNA
METAR KGNA 011556Z AUTO 06014G19KT 00/M01 A2988 RMK AO1 SLP130 P0001
T00001011





000
SAUS43 KDLH 011558
MTRGNA
METAR KGNA 011556Z AUTO 06014G19KT 00/M01 A2988 RMK AO1 SLP130 P0001
T00001011





000
SAUS43 KDLH 011458
MTRGNA
METAR KGNA 011456Z AUTO 07013G19KT M01/M02 A2992 RMK AO1 SLP142
T10061017 58021





000
SAUS43 KDLH 011357
MTRGNA
METAR KGNA 011356Z AUTO 08013KT M01/M02 A2995 RMK AO1 SLP152
T10061017





000
SAUS43 KDLH 011257
MTRGNA
METAR KGNA 011256Z AUTO 06006KT M01/M02 A2997 RMK AO1 SLP159
T10061017





000
SAUS43 KDLH 011257
MTRGNA
METAR KGNA 011256Z AUTO 06006KT M01/M02 A2997 RMK AO1 SLP159
T10061017





000
SAUS43 KDLH 011157
MTRGNA
METAR KGNA 011156Z AUTO 06005KT M01/M02 A2998 RMK AO1 SLP163 70003
T10061022 11006 21011 58002





000
SAUS43 KDLH 011157
MTRGNA
METAR KGNA 011156Z AUTO 06005KT M01/M02 A2998 RMK AO1 SLP163 70003
T10061022 11006 21011 58002





000
SAUS43 KDLH 011057
MTRGNA
METAR KGNA 011056Z AUTO 07005KT M01/M02 A2999 RMK AO1 SLP165
T10061022





000
SAUS43 KDLH 010957
MTRGNA
METAR KGNA 010956Z AUTO 07004KT M01/M03 A2998 RMK AO1 SLP164
T10061028





000
SAUS43 KDLH 010857
MTRGNA
METAR KGNA 010856Z AUTO 04003KT M01/M03 A2998 RMK AO1 SLP165
T10061028 58005





000
SAUS43 KDLH 010857
MTRGNA
METAR KGNA 010856Z AUTO 04003KT M01/M03 A2998 RMK AO1 SLP165
T10061028 58005





000
SAUS43 KDLH 010757
MTRGNA
METAR KGNA 010756Z AUTO 05005KT M01/M03 A2999 RMK AO1 SLP166
T10061028





000
SAUS43 KDLH 010757
MTRGNA
METAR KGNA 010756Z AUTO 05005KT M01/M03 A2999 RMK AO1 SLP166
T10061028





000
SAUS43 KDLH 010657
MTRGNA
METAR KGNA 010656Z AUTO 12004KT M01/M02 A3000 RMK AO1 SLP170
T10061022





000
SAUS43 KDLH 010657
MTRGNA
METAR KGNA 010656Z AUTO 12004KT M01/M02 A3000 RMK AO1 SLP170
T10061022





000
SAUS43 KDLH 010557
MTRGNA
METAR KGNA 010556Z AUTO 00000KT M01/M03 A3000 RMK AO1 SLP170
T10061028 10006 21011 400171011 53001





000
SAUS43 KDLH 010457
MTRGNA
METAR KGNA 010456Z AUTO 06003KT M01/M03 A2999 RMK AO1 SLP167
T10061028





000
SAUS43 KDLH 010457
MTRGNA
METAR KGNA 010456Z AUTO 06003KT M01/M03 A2999 RMK AO1 SLP167
T10061028





000
SAUS43 KDLH 010358
MTRGNA
METAR KGNA 010356Z AUTO 05009KT M01/M02 A3000 RMK AO1 SLP169
T10061022





000
SAUS43 KDLH 010257
MTRGNA
METAR KGNA 010256Z AUTO 06012KT 00/M02 A3000 RMK AO1 SLP169
T00001017 51013





000
SAUS43 KDLH 010257
MTRGNA
METAR KGNA 010256Z AUTO 06012KT 00/M02 A3000 RMK AO1 SLP169
T00001017 51013





000
SAUS43 KDLH 010158
MTRGNA
METAR KGNA 010156Z AUTO 07011G18KT 00/M02 A2999 RMK AO1 SLP165
T00001017





000
SAUS43 KDLH 312357
MTRGNA
METAR KGNA 312356Z AUTO 08011KT 01/M01 A2996 RMK AO1 SLP155
T00061011 10017 20006 51024





000
SAUS43 KDLH 312357
MTRGNA
METAR KGNA 312356Z AUTO 08011KT 01/M01 A2996 RMK AO1 SLP155
T00061011 10017 20006 51024





000
SAUS43 KDLH 312257
MTRGNA
METAR KGNA 312256Z AUTO 09011KT 01/M01 A2994 RMK AO1 SLP148
T00061006





000
SAUS43 KDLH 312257
MTRGNA
METAR KGNA 312256Z AUTO 09011KT 01/M01 A2994 RMK AO1 SLP148
T00061006





000
SAUS43 KDLH 312157
MTRGNA
METAR KGNA 312156Z AUTO 06007KT 01/M01 A2991 RMK AO1 SLP139
T00111006





000
SAUS43 KDLH 312057
MTRGNA
METAR KGNA 312056Z AUTO 10004KT 01/00 A2989 RMK AO1 SLP131 T00110000
53019





000
SAUS43 KDLH 311957
MTRGNA
METAR KGNA 311956Z AUTO 08008KT 01/M01 A2986 RMK AO1 SLP122
T00111006





000
SAUS43 KDLH 311957
MTRGNA
METAR KGNA 311956Z AUTO 08008KT 01/M01 A2986 RMK AO1 SLP122
T00111006





000
SAUS43 KDLH 311857
MTRGNA
METAR KGNA 311856Z AUTO VRB03KT 02/00 A2984 RMK AO1 SLP115 T00170000





000
SAUS43 KDLH 311857
MTRGNA
METAR KGNA 311856Z AUTO VRB03KT 02/00 A2984 RMK AO1 SLP115 T00170000





000
SAUS43 KDLH 311757
MTRGNA
METAR KGNA 311756Z AUTO 12003KT 01/00 A2983 RMK AO1 SLP111 60003
T00110000 10011 21006 53003





000
SAUS43 KDLH 311657
MTRGNA
METAR KGNA 311656Z AUTO 11003KT 01/00 A2982 RMK AO1 SLP107 T00060000





000
SAUS43 KDLH 311657
MTRGNA
METAR KGNA 311656Z AUTO 11003KT 01/00 A2982 RMK AO1 SLP107 T00060000





000
SAUS43 KDLH 311557
MTRGNA
METAR KGNA 311556Z AUTO 09004KT 00/M01 A2981 RMK AO1 SLP107
T00001011





000
SAUS43 KDLH 311457
MTRGNA
METAR KGNA 311456Z AUTO 06004KT 00/M01 A2982 RMK AO1 SLP109 60003
T00001011 55001





000
SAUS43 KDLH 311457
MTRGNA
METAR KGNA 311456Z AUTO 06004KT 00/M01 A2982 RMK AO1 SLP109 60003
T00001011 55001





000
SAUS43 KDLH 311357
MTRGNA
METAR KGNA 311356Z AUTO 05003KT 00/M02 A2981 RMK AO1 SLP106 P0001
T00001022





000
SAUS43 KDLH 311357
MTRGNA
METAR KGNA 311356Z AUTO 05003KT 00/M02 A2981 RMK AO1 SLP106 P0001
T00001022





000
SAUS43 KDLH 311257
MTRGNA
METAR KGNA 311256Z AUTO 04003KT M01/M02 A2982 RMK AO1 SLP107 P0002
T10061017





000
SAUS43 KDLH 311257
MTRGNA
METAR KGNA 311256Z AUTO 04003KT M01/M02 A2982 RMK AO1 SLP107 P0002
T10061017





000
SAUS43 KDLH 311157
MTRGNA
METAR KGNA 311156Z AUTO 00000KT 00/M02 A2982 RMK AO1 SLP108
T00001022 10000 21011 58007





000
SAUS43 KDLH 311157
MTRGNA
METAR KGNA 311156Z AUTO 00000KT 00/M02 A2982 RMK AO1 SLP108
T00001022 10000 21011 58007





000
SAUS43 KDLH 311057
MTRGNA
METAR KGNA 311056Z AUTO 04003KT M01/M03 A2983 RMK AO1 SLP110
T10061028





000
SAUS43 KDLH 311057
MTRGNA
METAR KGNA 311056Z AUTO 04003KT M01/M03 A2983 RMK AO1 SLP110
T10061028





000
SAUS43 KDLH 310957
MTRGNA
METAR KGNA 310956Z AUTO 24004KT M01/M03 A2985 RMK AO1 SLP117
T10061028





000
SAUS43 KDLH 310957
MTRGNA
METAR KGNA 310956Z AUTO 24004KT M01/M03 A2985 RMK AO1 SLP117
T10061028





000
SAUS43 KDLH 310857
MTRGNA
METAR KGNA 310856Z AUTO 00000KT M01/M03 A2984 RMK AO1 SLP116
T10061028 56006





000
SAUS43 KDLH 310857
MTRGNA
METAR KGNA 310856Z AUTO 00000KT M01/M03 A2984 RMK AO1 SLP116
T10061028 56006





000
SAUS43 KDLH 310757
MTRGNA
METAR KGNA 310756Z AUTO 00000KT M01/M03 A2985 RMK AO1 SLP117
T10111028





000
SAUS43 KDLH 310657
MTRGNA
METAR KGNA 310656Z AUTO 00000KT M01/M03 A2985 RMK AO1 SLP117
T10061028





000
SAUS43 KDLH 310657
MTRGNA
METAR KGNA 310656Z AUTO 00000KT M01/M03 A2985 RMK AO1 SLP117
T10061028





000
SAUS43 KDLH 310557
MTRGNA
METAR KGNA 310556Z AUTO 05004KT M01/M03 A2986 RMK AO1 SLP121
T10061028 10017 21017 400561017 58009





000
SAUS43 KDLH 310557
MTRGNA
METAR KGNA 310556Z AUTO 05004KT M01/M03 A2986 RMK AO1 SLP121
T10061028 10017 21017 400561017 58009





000
SAUS43 KDLH 310457
MTRGNA
METAR KGNA 310456Z AUTO 05004KT M01/M03 A2988 RMK AO1 SLP129
T10111028





000
SAUS43 KDLH 310457
MTRGNA
METAR KGNA 310456Z AUTO 05004KT M01/M03 A2988 RMK AO1 SLP129
T10111028





000
SAUS43 KDLH 310357
MTRGNA
METAR KGNA 310356Z AUTO 04003KT M01/M03 A2990 RMK AO1 SLP134
T10111033





000
SAUS43 KDLH 310257
MTRGNA
METAR KGNA 310256Z AUTO 06003KT M01/M03 A2989 RMK AO1 SLP131
T10111028 52007





000
SAUS43 KDLH 310257
MTRGNA
METAR KGNA 310256Z AUTO 06003KT M01/M03 A2989 RMK AO1 SLP131
T10111028 52007





000
SAUS43 KDLH 310157
MTRGNA
METAR KGNA 310156Z AUTO 06003KT 01/M02 A2988 RMK AO1 SLP129
T00061017





000
SAUS43 KDLH 310157
MTRGNA
METAR KGNA 310156Z AUTO 06003KT 01/M02 A2988 RMK AO1 SLP129
T00061017





000
SAUS43 KDLH 310057
MTRGNA
METAR KGNA 310056Z AUTO 05008KT 01/M01 A2987 RMK AO1 SLP125
T00061011





000
SAUS43 KDLH 310057
MTRGNA
METAR KGNA 310056Z AUTO 05008KT 01/M01 A2987 RMK AO1 SLP125
T00061011





000
SAUS43 KDLH 302357
MTRGNA
METAR KGNA 302356Z AUTO 06006KT 02/M01 A2987 RMK AO1 SLP123
T00171006 10056 20017 53005





000
SAUS43 KDLH 302357
MTRGNA
METAR KGNA 302356Z AUTO 06006KT 02/M01 A2987 RMK AO1 SLP123
T00171006 10056 20017 53005





000
SAUS43 KDLH 302257
MTRGNA
METAR KGNA 302256Z AUTO 06003KT 03/00 A2985 RMK AO1 SLP118 T00280000





000
SAUS43 KDLH 302257
MTRGNA
METAR KGNA 302256Z AUTO 06003KT 03/00 A2985 RMK AO1 SLP118 T00280000





000
SAUS43 KDLH 302157
MTRGNA
METAR KGNA 302156Z AUTO 06005KT 02/00 A2986 RMK AO1 SLP119 T00220000





000
SAUS43 KDLH 302057
MTRGNA
METAR KGNA 302056Z AUTO 19003KT 03/M01 A2985 RMK AO1 SLP116
T00331011 56017





000
SAUS43 KDLH 302057
MTRGNA
METAR KGNA 302056Z AUTO 19003KT 03/M01 A2985 RMK AO1 SLP116
T00331011 56017





000
SAUS43 KDLH 301957
MTRGNA
METAR KGNA 301956Z AUTO 21005KT 03/M01 A2986 RMK AO1 SLP119
T00281006





000
SAUS43 KDLH 301857
MTRGNA
METAR KGNA 301856Z AUTO 24008KT 05/M01 A2988 RMK AO1 SLP124
T00501006





000
SAUS43 KDLH 301857
MTRGNA
METAR KGNA 301856Z AUTO 24008KT 05/M01 A2988 RMK AO1 SLP124
T00501006





000
SAUS43 KDLH 301757
MTRGNA
METAR KGNA 301756Z AUTO 24004KT 03/M02 A2990 RMK AO1 SLP133
T00331017 10050 20000 50000





000
SAUS43 KDLH 301757
MTRGNA
METAR KGNA 301756Z AUTO 24004KT 03/M02 A2990 RMK AO1 SLP133
T00331017 10050 20000 50000





000
SAUS43 KDLH 301657
MTRGNA
METAR KGNA 301656Z AUTO 23006KT 03/M02 A2991 RMK AO1 SLP135
T00331017





000
SAUS43 KDLH 301657
MTRGNA
METAR KGNA 301656Z AUTO 23006KT 03/M02 A2991 RMK AO1 SLP135
T00331017





000
SAUS43 KDLH 301557
MTRGNA
METAR KGNA 301556Z AUTO 24006KT 03/M02 A2990 RMK AO1 WSHFT 1522
SLP133 T00281017





000
SAUS43 KDLH 301544
MTRGNA
SPECI KGNA 301542Z AUTO 20011KT 02/M02 A2989 RMK AO1 WSHFT 1522
T00221017





000
SAUS43 KDLH 301457
MTRGNA
METAR KGNA 301456Z AUTO 21005KT 03/M03 A2990 RMK AO1 SLP132
T00331028 51016





000
SAUS43 KDLH 301357
MTRGNA
METAR KGNA 301356Z AUTO 24005KT 02/M02 A2989 RMK AO1 SLP130
T00221022





000
SAUS43 KDLH 301357
MTRGNA
METAR KGNA 301356Z AUTO 24005KT 02/M02 A2989 RMK AO1 SLP130
T00221022





000
SAUS43 KDLH 301257
MTRGNA
METAR KGNA 301256Z AUTO 15003KT 01/M03 A2988 RMK AO1 SLP128
T00111028





000
SAUS43 KDLH 301157
MTRGNA
METAR KGNA 301156Z AUTO 00000KT 01/M04 A2985 RMK AO1 SLP117 70027
T00061039 10044 20006 53037





000
SAUS43 KDLH 301157
MTRGNA
METAR KGNA 301156Z AUTO 00000KT 01/M04 A2985 RMK AO1 SLP117 70027
T00061039 10044 20006 53037





000
SAUS43 KDLH 301057
MTRGNA
METAR KGNA 301056Z AUTO VRB04KT 02/M03 A2981 RMK AO1 SLP101
T00171033





000
SAUS43 KDLH 301057
MTRGNA
METAR KGNA 301056Z AUTO VRB04KT 02/M03 A2981 RMK AO1 SLP101
T00171033





    US Dept of Commerce
    National Oceanic and Atmospheric Administration
    National Weather Service
    1325 East West Highway
    Silver Spring, MD 20910
    Page Author: NWS Internet Services Team
Disclaimer
Information Quality
Credits
Glossary
Privacy Policy
Freedom of Information Act (FOIA)
About Us
Career Opportunities